Carmel by the Sea, California
Current Conditions -  °F | °C
As of 9:54 AM on Thursday 29 Jan 2015 (Local Time) from KMRY Reporting Station
Clear Clear  
Wind Chill: 58°   Ceiling: Unl
Heat Index: 58°   Visibility: 10mi
Dew Point: 45°   Wind: 0mph
Humidity: 62%   Direction: NA
Pressure: 30.13"   Gusts: NA
Location:  36.5547°N, 121.916°W
Report Text: KMRY 291754Z 00000KT 10SM CLR 14/07 A3013 RMK AO2 SLP214 T01440072 10144 20061 51004
Loading
Personal Weather Stations






























Interactive Weather Map New forecast layout! Learn more

10-Day Weather Forecast

Advertisements
Track Severe Weather on mobile